Time;durP1;ratioP1;P1;durP2;ratioP2;P2;SDS_P1;SDS_P2;PMS_P1;PMS_P2;Temp;Humidity;BMP_temperature;BMP_pressure;BME280_temperature;BME280_humidity;BME280_pressure;Samples;Min_cycle;Max_cycle;Signal;HPM_P1;HPM_P2
2021/09/04 00:01:52;;;;;;;3.42;2.83;;;;;;;26.70;40.99;101421.78;144992;585;6002;-87
2021/09/04 00:04:19;;;;;;;2.90;2.60;;;;;;;26.69;40.86;101418.22;144992;599;6002;-86
2021/09/04 00:06:46;;;;;;;3.50;2.47;;;;;;;26.66;40.96;101413.03;144992;756;6002;-87
2021/09/04 00:09:13;;;;;;;3.92;2.50;;;;;;;26.56;40.79;101411.47;144992;609;6002;-88
2021/09/04 00:11:40;;;;;;;2.65;2.45;;;;;;;26.54;40.98;101406.19;144992;569;6002;-88
2021/09/04 00:14:07;;;;;;;3.62;2.50;;;;;;;26.53;41.28;101407.06;144992;622;6002;-86
2021/09/04 00:16:34;;;;;;;2.85;2.45;;;;;;;26.52;41.33;101397.38;144992;752;6002;-88
2021/09/04 00:19:00;;;;;;;4.15;2.50;;;;;;;26.52;41.39;101396.47;144992;891;6002;-87
2021/09/04 00:21:27;;;;;;;3.70;2.70;;;;;;;26.51;41.19;101395.59;144992;585;6002;-86
2021/09/04 00:23:53;;;;;;;3.75;2.60;;;;;;;26.51;40.92;101392.06;144992;581;6002;-86
2021/09/04 00:26:22;;;;;;;2.95;2.58;;;;;;;26.43;41.36;101384.28;144992;833;6002;-87
2021/09/04 00:28:49;;;;;;;2.85;2.37;;;;;;;26.42;41.25;101391.41;144992;909;6002;-86
2021/09/04 00:31:16;;;;;;;3.92;2.92;;;;;;;26.42;41.34;101393.19;144992;586;6002;-88
2021/09/04 00:33:43;;;;;;;4.15;2.80;;;;;;;26.40;41.39;101400.34;144992;910;6002;-86
2021/09/04 00:36:10;;;;;;;3.33;2.45;;;;;;;26.38;41.00;101399.50;144992;564;6002;-87
2021/09/04 00:38:37;;;;;;;3.60;2.72;;;;;;;26.35;41.37;101394.25;144991;909;6010;-89
2021/09/04 00:41:04;;;;;;;4.95;2.87;;;;;;;26.34;41.30;101381.84;144992;910;6002;-87
2021/09/04 00:43:31;;;;;;;2.97;2.40;;;;;;;26.33;41.21;101378.34;144992;572;6002;-85
2021/09/04 00:46:10;;;;;;;3.65;2.40;;;;;;;26.35;41.54;101372.97;144992;601;6002;-87
2021/09/04 00:48:37;;;;;;;3.87;2.58;;;;;;;26.33;41.19;101373.00;144992;593;6002;-89
2021/09/04 00:51:04;;;;;;;3.22;2.72;;;;;;;26.33;41.53;101380.13;144992;908;6002;-87
2021/09/04 00:53:31;;;;;;;5.90;2.60;;;;;;;26.32;41.28;101387.22;144992;592;6002;-87
2021/09/04 00:56:00;;;;;;;3.60;2.60;;;;;;;26.31;41.11;101371.28;144992;886;6002;-86
2021/09/04 00:58:27;;;;;;;3.75;2.70;;;;;;;26.18;41.38;101368.06;144992;858;6002;-89
2021/09/04 01:00:54;;;;;;;3.15;2.60;;;;;;;26.09;41.90;101368.28;144992;574;6002;-86
2021/09/04 01:03:21;;;;;;;5.15;2.70;;;;;;;26.01;41.46;101376.44;144992;821;6002;-87
2021/09/04 01:05:48;;;;;;;4.07;2.92;;;;;;;25.85;42.19;101373.25;144991;610;6002;-85
2021/09/04 01:08:15;;;;;;;3.83;3.40;;;;;;;25.67;42.47;101371.91;144992;909;6002;-86
2021/09/04 01:10:43;;;;;;;4.03;3.25;;;;;;;25.66;42.26;101371.03;144992;569;6002;-86
2021/09/04 01:13:10;;;;;;;4.53;4.12;;;;;;;25.66;42.46;101376.34;144992;569;6002;-87
2021/09/04 01:15:38;;;;;;;7.60;5.32;;;;;;;25.63;42.54;101368.44;144992;563;6002;-87
2021/09/04 01:18:05;;;;;;;5.18;4.60;;;;;;;25.61;42.46;101362.31;144992;586;6002;-87
2021/09/04 01:20:32;;;;;;;6.55;4.28;;;;;;;25.64;42.56;101356.91;144992;754;6002;-87
2021/09/04 01:22:59;;;;;;;6.00;4.40;;;;;;;25.74;42.38;101352.25;144992;600;6002;-89
2021/09/04 01:25:29;;;;;;;4.78;3.60;;;;;;;25.77;42.27;101352.19;144992;627;6002;-87
2021/09/04 01:27:57;;;;;;;6.18;3.78;;;;;;;25.77;42.46;101361.94;144993;835;6002;-86
2021/09/04 01:30:24;;;;;;;4.45;3.72;;;;;;;25.81;42.26;101353.84;144993;584;6002;-87
2021/09/04 01:33:01;;;;;;;4.43;3.97;;;;;;;25.85;42.45;101358.19;144993;580;6002;-81
2021/09/04 01:35:30;;;;;;;4.53;3.40;;;;;;;25.86;42.50;101354.59;144993;588;6002;-86
2021/09/04 01:37:57;;;;;;;3.53;2.90;;;;;;;25.86;42.16;101367.91;144993;597;6002;-86
2021/09/04 01:40:24;;;;;;;6.37;2.80;;;;;;;25.92;42.35;101360.72;144993;573;6002;-86
2021/09/04 01:42:50;;;;;;;5.68;2.97;;;;;;;25.96;42.15;101359.69;144993;707;6002;-87
2021/09/04 01:45:19;;;;;;;3.20;2.87;;;;;;;25.94;42.15;101365.06;144993;679;6002;-88
2021/09/04 01:47:46;;;;;;;3.35;2.62;;;;;;;25.90;41.86;101363.41;144993;600;6002;-88
2021/09/04 01:50:16;;;;;;;4.60;2.72;;;;;;;25.85;42.14;101362.63;144993;627;6002;-87
2021/09/04 01:52:46;;;;;;;4.82;2.70;;;;;;;25.89;42.08;101362.50;144993;569;6002;-89
2021/09/04 01:55:18;;;;;;;4.50;2.90;;;;;;;25.94;41.69;101366.84;144993;573;6002;-87
2021/09/04 01:57:45;;;;;;;5.45;2.70;;;;;;;25.94;41.92;101365.06;144993;909;6002;-88
2021/09/04 02:00:15;;;;;;;5.05;3.10;;;;;;;25.93;41.56;101368.66;144992;565;6002;-84
2021/09/04 02:02:42;;;;;;;3.12;2.80;;;;;;;25.92;41.86;101369.56;144992;905;6002;-88
2021/09/04 02:05:11;;;;;;;3.35;2.60;;;;;;;25.94;41.95;101369.50;144992;569;6002;-84
2021/09/04 02:07:37;;;;;;;3.15;2.80;;;;;;;25.95;41.61;101368.63;144992;577;6002;-86
2021/09/04 02:10:07;;;;;;;4.22;2.80;;;;;;;25.96;41.67;101370.34;144992;603;6002;-87
2021/09/04 02:12:34;;;;;;;4.87;2.80;;;;;;;25.97;41.61;101375.66;144993;911;6002;-87
2021/09/04 02:15:03;;;;;;;3.10;2.80;;;;;;;25.99;41.57;101368.50;144993;563;6002;-88
2021/09/04 02:17:30;;;;;;;3.10;2.75;;;;;;;26.01;41.64;101363.16;144993;686;6002;-86
2021/09/04 02:25:02;;;;;;;4.93;2.80;;;;;;;26.12;41.61;101350.50;144993;889;6002;-86
2021/09/04 02:27:28;;;;;;;3.75;2.58;;;;;;;26.19;41.83;101349.41;144993;586;6002;-89
2021/09/04 02:29:57;;;;;;;3.75;2.50;;;;;;;26.17;41.42;101337.03;144992;579;6002;-86
2021/09/04 02:32:24;;;;;;;6.43;2.72;;;;;;;26.19;41.58;101340.56;144993;595;6002;-88
2021/09/04 02:34:53;;;;;;;4.65;2.87;;;;;;;26.14;41.68;101334.50;144993;582;6002;-88
2021/09/04 02:37:20;;;;;;;3.25;2.50;;;;;;;26.16;41.35;101335.31;144993;761;6002;-86
2021/09/04 02:39:49;;;;;;;2.87;2.58;;;;;;;26.13;41.66;101333.59;144993;573;6002;-87
2021/09/04 02:42:16;;;;;;;5.68;2.60;;;;;;;26.12;41.45;101337.19;144993;753;6002;-88
2021/09/04 02:44:45;;;;;;;3.20;2.47;;;;;;;26.08;41.34;101337.31;144993;565;6002;-89
2021/09/04 02:47:12;;;;;;;2.78;2.50;;;;;;;26.04;41.40;101340.03;144993;908;6002;-88
2021/09/04 02:49:41;;;;;;;2.95;2.75;;;;;;;26.02;41.67;101338.31;144993;569;6002;-87
2021/09/04 02:52:08;;;;;;;3.67;2.58;;;;;;;26.01;41.89;101337.44;144993;572;6002;-88
2021/09/04 02:54:35;;;;;;;4.60;2.62;;;;;;;26.02;41.61;101333.84;144993;908;6002;-88
2021/09/04 02:57:02;;;;;;;4.82;2.70;;;;;;;26.03;42.00;101326.78;144993;590;6002;-87
2021/09/04 02:59:28;;;;;;;3.03;2.30;;;;;;;26.02;41.74;101325.88;144993;586;6002;-86
2021/09/04 03:01:57;;;;;;;3.95;2.80;;;;;;;25.99;42.02;101319.75;144993;908;6002;-88
2021/09/04 03:04:23;;;;;;;4.12;2.67;;;;;;;26.00;41.82;101325.03;144993;816;6002;-87
2021/09/04 03:06:51;;;;;;;4.37;2.85;;;;;;;26.00;41.87;101317.06;144994;587;5002;-87
2021/09/04 03:09:18;;;;;;;4.15;2.50;;;;;;;25.98;42.08;101326.03;144994;589;5002;-88
2021/09/04 03:11:44;;;;;;;4.00;2.50;;;;;;;25.96;41.87;101320.69;144994;596;5002;-88
2021/09/04 03:14:13;;;;;;;2.50;2.30;;;;;;;25.96;42.19;101320.69;144994;577;5002;-88
2021/09/04 03:16:39;;;;;;;2.78;2.30;;;;;;;25.92;41.91;101321.69;144994;721;5003;-86
2021/09/04 03:19:07;;;;;;;3.55;2.40;;;;;;;25.94;42.38;101321.63;144994;564;5002;-88
2021/09/04 03:21:34;;;;;;;3.45;2.58;;;;;;;25.94;41.99;101322.50;144994;569;5002;-88
2021/09/04 03:24:00;;;;;;;4.37;2.65;;;;;;;25.88;42.40;101326.22;144994;587;5002;-86
2021/09/04 03:26:29;;;;;;;3.20;2.50;;;;;;;25.79;42.45;101323.75;144994;610;5002;-87
2021/09/04 03:28:55;;;;;;;4.55;2.60;;;;;;;25.80;42.58;101329.94;144994;569;5002;-87
2021/09/04 03:31:24;;;;;;;4.93;2.62;;;;;;;25.79;42.39;101328.22;144994;587;5002;-88
2021/09/04 03:33:51;;;;;;;3.00;2.70;;;;;;;25.78;42.40;101323.81;144994;570;5002;-88
2021/09/04 03:36:17;;;;;;;3.60;2.72;;;;;;;25.78;42.51;101323.81;144994;647;5002;-86
2021/09/04 03:38:48;;;;;;;4.90;2.53;;;;;;;25.78;42.99;101324.66;144994;579;5002;-87
2021/09/04 03:41:18;;;;;;;4.00;2.67;;;;;;;25.78;42.90;101327.31;144994;590;5002;-88
2021/09/04 03:43:44;;;;;;;4.43;2.28;;;;;;;25.79;42.39;101328.22;144994;577;5002;-86
2021/09/04 03:46:11;;;;;;;2.90;2.47;;;;;;;25.73;43.06;101334.53;144994;583;5002;-85
2021/09/04 03:48:40;;;;;;;3.30;2.45;;;;;;;25.76;42.89;101349.56;144994;581;5002;-86
2021/09/04 03:51:07;;;;;;;4.20;2.47;;;;;;;25.69;42.95;101352.34;144994;848;5002;-86
2021/09/04 03:53:40;;;;;;;3.25;2.50;;;;;;;25.69;43.18;101349.69;144994;570;5002;-87
2021/09/04 03:56:08;;;;;;;3.17;2.75;;;;;;;25.71;42.85;101344.34;144994;758;5002;-88
2021/09/04 03:58:34;;;;;;;4.15;2.60;;;;;;;25.73;42.95;101350.50;144994;600;5002;-86
2021/09/04 04:01:04;;;;;;;3.40;2.60;;;;;;;25.74;43.34;101356.69;144994;759;5003;-87
2021/09/04 04:03:30;;;;;;;7.72;3.00;;;;;;;25.75;43.07;101359.31;144994;589;5002;-87
2021/09/04 04:05:58;;;;;;;6.62;3.10;;;;;;;25.75;43.11;101353.13;144994;590;5002;-88
2021/09/04 04:08:25;;;;;;;6.25;2.85;;;;;;;25.74;43.28;101346.03;144994;657;5003;-86
2021/09/04 04:10:54;;;;;;;4.10;2.75;;;;;;;25.70;42.88;101340.78;144994;564;5002;-86
2021/09/04 04:13:20;;;;;;;4.85;2.90;;;;;;;25.73;43.37;101344.31;144994;566;5002;-88
2021/09/04 04:15:47;;;;;;;5.65;2.90;;;;;;;25.72;43.48;101348.72;144994;645;5002;-88
2021/09/04 04:18:13;;;;;;;5.15;2.95;;;;;;;25.69;43.17;101346.16;144994;570;5002;-87
2021/09/04 04:20:42;;;;;;;6.60;2.87;;;;;;;25.66;43.26;101349.78;144994;610;5002;-86
2021/09/04 04:23:08;;;;;;;2.87;2.33;;;;;;;25.65;43.30;101361.31;144994;910;5002;-86
2021/09/04 04:25:35;;;;;;;9.18;3.05;;;;;;;25.65;43.27;101368.41;144994;627;5002;-87
2021/09/04 04:28:05;;;;;;;5.95;2.60;;;;;;;25.65;43.54;101366.63;144994;570;5002;-84
2021/09/04 04:30:31;;;;;;;4.62;3.00;;;;;;;25.66;43.21;101373.69;144994;602;5002;-86
2021/09/04 04:32:58;;;;;;;5.32;3.00;;;;;;;25.65;43.37;101374.59;144994;569;5002;-86
2021/09/04 04:35:26;;;;;;;5.53;3.05;;;;;;;25.64;43.13;101378.19;144994;563;5002;-85
2021/09/04 04:37:52;;;;;;;3.62;2.87;;;;;;;25.66;43.24;101370.16;144994;598;5002;-87
2021/09/04 04:40:19;;;;;;;7.25;3.37;;;;;;;25.66;43.38;101379.00;144994;615;5002;-86
2021/09/04 04:42:47;;;;;;;6.18;3.15;;;;;;;25.69;43.22;101380.72;144994;581;5002;-86
2021/09/04 04:45:13;;;;;;;3.53;2.60;;;;;;;25.70;43.64;101379.81;144994;589;5002;-88
2021/09/04 04:47:40;;;;;;;4.62;2.70;;;;;;;25.69;43.10;101383.38;144994;576;5002;-86
2021/09/04 04:50:10;;;;;;;3.55;2.90;;;;;;;25.60;43.39;101392.44;144994;585;5002;-85
2021/09/04 04:52:37;;;;;;;4.85;3.37;;;;;;;25.61;43.72;101388.88;144994;579;5002;-88
2021/09/04 04:55:06;;;;;;;7.35;3.10;;;;;;;25.64;43.76;101391.47;144994;583;5002;-86
2021/09/04 04:57:33;;;;;;;4.30;2.70;;;;;;;25.65;43.76;101381.72;144994;629;5002;-87
2021/09/04 05:00:03;;;;;;;4.72;3.15;;;;;;;25.70;43.67;101383.34;144994;732;5003;-84
2021/09/04 05:02:29;;;;;;;4.18;3.00;;;;;;;25.78;43.21;101374.31;144994;564;5002;-84
2021/09/04 05:05:19;;;;;;;;;;;;;;;;;;;;;
2021/09/04 05:07:56;;;;;;;3.85;2.90;;;;;;;25.90;43.34;101374.03;144994;649;5003;-87
2021/09/04 05:10:27;;;;;;;3.40;3.00;;;;;;;25.95;43.14;101379.25;144994;583;5002;-88
2021/09/04 05:12:54;;;;;;;4.10;2.85;;;;;;;25.99;43.17;101372.97;144994;597;5002;-89
2021/09/04 05:15:22;;;;;;;3.95;3.03;;;;;;;26.04;43.18;101374.62;144994;587;5002;-87
2021/09/04 05:17:48;;;;;;;5.47;3.10;;;;;;;26.08;42.89;101378.06;144994;565;5002;-87
2021/09/04 05:20:17;;;;;;;4.30;3.85;;;;;;;26.11;43.05;101374.47;144994;570;5002;-88
2021/09/04 05:22:46;;;;;;;7.97;5.10;;;;;;;26.15;43.17;101378.78;144994;642;5002;-87
2021/09/04 05:25:15;;;;;;;7.35;4.93;;;;;;;26.18;43.13;101376.03;144994;600;5002;-85
2021/09/04 05:27:42;;;;;;;5.70;3.60;;;;;;;26.22;43.08;101380.41;144994;585;5002;-87
2021/09/04 05:30:11;;;;;;;4.12;3.72;;;;;;;26.24;43.03;101394.53;144994;606;5002;-87
2021/09/04 05:32:40;;;;;;;5.22;3.10;;;;;;;26.29;42.87;101395.28;144994;564;5002;-87
2021/09/04 05:35:09;;;;;;;4.72;3.08;;;;;;;26.34;42.92;101387.19;144994;585;5002;-88
2021/09/04 05:37:35;;;;;;;3.53;3.05;;;;;;;26.39;42.78;101385.25;144994;649;5002;-88
2021/09/04 05:40:04;;;;;;;5.12;3.05;;;;;;;26.45;43.08;101385.13;144994;625;5002;-88
2021/09/04 05:42:30;;;;;;;4.25;3.58;;;;;;;26.51;42.78;101382.28;144994;911;5002;-88
2021/09/04 05:45:00;;;;;;;7.35;3.22;;;;;;;26.55;42.78;101383.06;144994;571;5002;-88
2021/09/04 05:47:27;;;;;;;6.22;3.20;;;;;;;26.60;42.76;101391.84;144994;595;5002;-86
2021/09/04 05:49:57;;;;;;;4.62;3.10;;;;;;;26.67;42.76;101404.09;144994;565;5002;-87
2021/09/04 05:52:23;;;;;;;5.45;3.20;;;;;;;26.73;42.62;101406.59;144994;794;5002;-86
2021/09/04 05:54:53;;;;;;;4.15;3.22;;;;;;;26.81;42.71;101400.22;144994;596;5002;-88
2021/09/04 05:57:21;;;;;;;4.20;3.08;;;;;;;26.85;42.46;101397.38;144994;600;5002;-86
2021/09/04 05:59:48;;;;;;;4.68;2.97;;;;;;;26.89;42.47;101401.72;144994;730;5003;-87
2021/09/04 06:02:15;;;;;;;6.00;3.20;;;;;;;26.90;42.55;101389.28;144994;572;5002;-84
2021/09/04 06:04:43;;;;;;;6.32;3.47;;;;;;;26.96;42.49;101378.44;144994;868;5002;-86
2021/09/04 06:07:09;;;;;;;3.50;2.90;;;;;;;27.01;42.41;101376.50;144994;627;5003;-87
2021/09/04 06:09:38;;;;;;;5.85;3.33;;;;;;;27.09;42.29;101385.19;144994;581;5002;-87
2021/09/04 06:12:07;;;;;;;7.25;3.72;;;;;;;27.16;42.27;101380.56;144994;868;5002;-87
2021/09/04 06:14:34;;;;;;;11.60;5.87;;;;;;;27.23;42.18;101384.78;144994;744;5002;-87
2021/09/04 06:17:01;;;;;;;10.63;7.80;;;;;;;27.24;42.24;101375.87;144994;589;5002;-87
2021/09/04 06:19:29;;;;;;;7.87;5.05;;;;;;;27.09;42.58;101385.19;144994;837;5002;-90
2021/09/04 06:21:55;;;;;;;8.07;4.55;;;;;;;27.12;42.74;101393.09;144994;860;5002;-88
2021/09/04 06:24:24;;;;;;;5.82;3.65;;;;;;;27.22;42.56;101383.03;144994;911;5002;-87
2021/09/04 06:26:50;;;;;;;5.75;3.70;;;;;;;27.29;42.61;101376.59;144994;782;5002;-86
2021/09/04 06:29:16;;;;;;;6.25;3.83;;;;;;;27.36;42.54;101371.12;144994;911;5002;-86
2021/09/04 06:31:45;;;;;;;5.68;2.83;;;;;;;27.41;42.52;101383.41;144994;571;5002;-85
2021/09/04 06:34:11;;;;;;;3.83;2.92;;;;;;;27.30;43.74;101383.72;144994;577;5002;-89
2021/09/04 06:36:42;;;;;;;4.75;2.33;;;;;;;27.25;43.24;101382.97;144994;777;5002;-86
2021/09/04 06:39:08;;;;;;;3.80;2.33;;;;;;;27.18;44.47;101394.69;144994;579;5002;-85
2021/09/04 06:41:36;;;;;;;4.85;2.67;;;;;;;27.18;44.06;101394.69;144994;599;5002;-86
2021/09/04 06:44:06;;;;;;;2.90;2.30;;;;;;;27.26;43.81;101379.34;144994;635;5002;-88
2021/09/04 06:46:33;;;;;;;3.72;2.28;;;;;;;27.18;44.21;101376.03;144994;579;5002;-88
2021/09/04 06:49:01;;;;;;;5.60;2.67;;;;;;;27.24;44.16;101375.00;144994;602;5002;-85
2021/09/04 06:51:29;;;;;;;3.65;2.05;;;;;;;27.32;44.19;101376.53;144994;585;5003;-87
2021/09/04 06:53:59;;;;;;;5.05;2.20;;;;;;;27.27;44.51;101375.78;144994;572;5002;-83
2021/09/04 07:01:34;;;;;;;5.93;2.30;;;;;;;27.02;45.50;101377.41;144993;627;5002;-88
2021/09/04 07:04:00;;;;;;;4.00;1.90;;;;;;;26.86;45.76;101367.19;144994;577;5002;-89
2021/09/04 07:06:27;;;;;;;5.10;2.08;;;;;;;26.87;45.55;101368.03;144994;588;5002;-88
2021/09/04 07:08:54;;;;;;;4.57;1.80;;;;;;;26.78;45.85;101371.84;144994;607;5002;-89
2021/09/04 07:11:23;;;;;;;5.55;2.78;;;;;;;26.85;45.86;101369.88;144994;563;5002;-89
2021/09/04 07:13:50;;;;;;;4.12;2.20;;;;;;;27.15;45.02;101368.13;144994;578;5002;-87
2021/09/04 07:16:17;;;;;;;3.87;2.30;;;;;;;26.97;45.67;101374.88;144994;584;5002;-87
2021/09/04 07:18:43;;;;;;;3.87;1.98;;;;;;;27.11;44.98;101383.34;144994;573;5002;-88
2021/09/04 07:21:15;;;;;;;4.12;2.03;;;;;;;27.19;44.81;101385.78;144994;563;5002;-87
2021/09/04 07:23:42;;;;;;;4.18;2.40;;;;;;;27.37;44.56;101392.41;144994;569;5002;-85
2021/09/04 07:26:11;;;;;;;4.22;2.10;;;;;;;27.38;44.74;101385.25;144994;665;5002;-89
2021/09/04 07:28:41;;;;;;;3.50;2.15;;;;;;;27.40;44.65;101383.44;144994;564;5002;-88
2021/09/04 07:31:07;;;;;;;4.32;2.20;;;;;;;27.46;44.41;101383.28;144994;620;5002;-87
2021/09/04 07:33:36;;;;;;;7.03;2.30;;;;;;;27.50;44.49;101387.56;144994;588;5002;-86
2021/09/04 07:36:08;;;;;;;5.22;2.28;;;;;;;27.62;44.27;101389.00;144994;607;5002;-89
2021/09/04 07:38:36;;;;;;;4.10;2.30;;;;;;;27.53;44.73;101382.16;144994;624;5002;-87
2021/09/04 07:41:02;;;;;;;3.60;2.20;;;;;;;27.50;44.50;101382.22;144994;563;4567;-88
2021/09/04 07:43:29;;;;;;;6.97;2.12;;;;;;;27.67;44.25;101398.59;144994;610;4572;-87
2021/09/04 07:45:55;;;;;;;6.15;2.35;;;;;;;27.43;44.67;101400.22;144994;730;4572;-90
2021/09/04 07:48:22;;;;;;;4.32;2.10;;;;;;;27.59;44.01;101408.62;144992;693;6002;-87
2021/09/04 07:50:49;;;;;;;4.50;2.33;;;;;;;27.60;43.87;101406.81;144992;665;6002;-88
2021/09/04 07:53:15;;;;;;;2.92;2.40;;;;;;;27.54;44.04;101407.00;144992;571;6002;-88
2021/09/04 07:55:42;;;;;;;3.45;2.17;;;;;;;27.52;44.16;101404.38;144992;566;6002;-88
2021/09/04 07:58:09;;;;;;;6.95;2.40;;;;;;;27.49;44.48;101413.37;144992;582;6002;-87
2021/09/04 08:00:35;;;;;;;4.60;3.12;;;;;;;27.65;43.99;101429.78;144992;595;6002;-89
2021/09/04 08:03:02;;;;;;;4.00;2.40;;;;;;;27.83;43.80;101443.47;144992;586;6002;-89
2021/09/04 08:05:29;;;;;;;4.78;2.72;;;;;;;27.85;43.92;101455.84;144992;578;6002;-86
2021/09/04 08:07:55;;;;;;;4.12;2.58;;;;;;;27.92;43.66;101456.53;144992;587;6002;-88
2021/09/04 08:10:21;;;;;;;7.15;2.42;;;;;;;28.12;43.29;101461.25;144992;695;6002;-88
2021/09/04 08:12:48;;;;;;;2.62;2.20;;;;;;;27.97;43.32;101456.41;144992;580;6002;-87
2021/09/04 08:15:14;;;;;;;5.12;2.60;;;;;;;27.98;43.44;101458.16;144992;604;6002;-86
2021/09/04 08:17:41;;;;;;;4.50;2.40;;;;;;;28.16;42.87;101454.91;144992;574;6002;-84
2021/09/04 08:20:09;;;;;;;4.55;2.20;;;;;;;28.15;42.86;101447.81;144992;588;6002;-87
2021/09/04 08:22:35;;;;;;;4.28;2.37;;;;;;;28.15;42.86;101452.28;144992;644;6002;-88
2021/09/04 08:25:03;;;;;;;3.92;2.50;;;;;;;28.31;42.57;101450.00;144992;575;6002;-87
2021/09/04 08:27:29;;;;;;;4.05;1.85;;;;;;;28.22;42.05;101448.47;144992;574;6002;-88
2021/09/04 08:29:56;;;;;;;4.07;2.30;;;;;;;28.18;42.38;101453.03;144992;595;6002;-87
2021/09/04 08:32:37;;;;;;;4.85;2.42;;;;;;;28.20;42.62;101459.19;144992;574;6002;-89
2021/09/04 08:35:12;;;;;;;2.47;2.23;;;;;;;28.48;41.91;101470.78;144992;569;6002;-85
2021/09/04 08:37:42;;;;;;;3.78;2.30;;;;;;;28.35;41.63;101460.53;144992;356;6002;-87
2021/09/04 08:40:11;;;;;;;4.57;2.70;;;;;;;28.40;42.02;101450.56;144992;577;6002;-87
2021/09/04 08:42:37;;;;;;;4.47;2.40;;;;;;;28.37;42.24;101445.31;144992;641;6002;-87
2021/09/04 08:45:04;;;;;;;4.12;2.30;;;;;;;28.50;41.89;101448.44;144992;588;6002;-86
2021/09/04 08:47:31;;;;;;;4.40;2.30;;;;;;;28.56;41.71;101458.91;144992;571;6002;-85
2021/09/04 08:49:58;;;;;;;4.78;2.90;;;;;;;28.61;41.62;101439.25;144992;726;6002;-86
2021/09/04 08:52:28;;;;;;;5.12;2.97;;;;;;;28.58;41.51;101441.06;144992;606;6002;-86
2021/09/04 08:54:54;;;;;;;4.28;2.80;;;;;;;28.59;41.68;101461.53;144992;589;6002;-87
2021/09/04 08:57:32;;;;;;;3.72;2.25;;;;;;;28.61;41.33;101461.47;144992;639;6002;-89
2021/09/04 09:00:03;;;;;;;4.78;2.58;;;;;;;28.73;40.98;101447.69;144992;566;6002;-89
2021/09/04 09:02:30;;;;;;;4.62;2.30;;;;;;;28.62;40.69;101448.97;144992;575;6002;-86
2021/09/04 09:05:09;;;;;;;3.83;2.53;;;;;;;28.54;41.12;101457.22;144992;639;6002;-87
2021/09/04 09:07:42;;;;;;;3.42;2.45;;;;;;;28.45;40.98;101466.41;144992;593;6002;-86
2021/09/04 09:10:45;;;;;;;6.93;2.72;;;;;;;28.23;41.60;101461.78;144992;595;6002;-88
2021/09/04 09:13:22;;;;;;;4.07;2.40;;;;;;;28.27;41.33;101456.34;144992;566;6004;-86
2021/09/04 09:15:51;;;;;;;3.42;2.53;;;;;;;28.16;41.80;101443.37;144992;594;6004;-86
2021/09/04 09:18:18;;;;;;;13.23;8.15;;;;;;;28.04;42.20;101444.63;144992;589;6004;-86
2021/09/04 09:20:46;;;;;;;5.40;3.67;;;;;;;28.14;41.76;101443.41;144992;656;6004;-86
2021/09/04 09:23:22;;;;;;;4.03;2.90;;;;;;;28.21;41.83;101423.59;144992;581;6004;-87
2021/09/04 09:25:49;;;;;;;9.15;3.70;;;;;;;28.20;41.97;101431.66;144992;572;6004;-85
2021/09/04 09:28:18;;;;;;;3.50;2.60;;;;;;;28.27;41.53;101432.31;144992;591;6004;-86
2021/09/04 09:30:48;;;;;;;3.85;2.92;;;;;;;28.21;41.71;101428.06;144992;667;6004;-89
2021/09/04 09:33:16;;;;;;;4.43;2.70;;;;;;;28.23;41.46;101424.41;144992;598;6004;-86
2021/09/04 09:35:46;;;;;;;4.00;3.05;;;;;;;28.10;41.81;101428.41;144992;643;6004;-89
2021/09/04 09:38:15;;;;;;;3.08;2.45;;;;;;;28.00;41.84;101422.50;144992;651;6004;-86
2021/09/04 09:40:43;;;;;;;4.72;2.58;;;;;;;27.84;42.65;101416.75;144992;604;6004;-85
2021/09/04 09:43:27;;;;;;;4.45;2.50;;;;;;;27.93;42.10;101410.22;144992;577;6005;-85
2021/09/04 09:45:55;;;;;;;;;;;;;;;27.92;42.19;101402.28;144996;911;6000;-88
2021/09/04 09:48:26;;;;;;;3.72;2.58;;;;;;;27.81;42.31;101400.84;144997;673;6000;-88
2021/09/04 09:50:54;;;;;;;4.15;2.40;;;;;;;27.80;42.85;101392.87;144992;691;6003;-89
2021/09/04 09:53:23;;;;;;;3.40;2.62;;;;;;;27.87;42.81;101373.97;144992;575;6002;-88
2021/09/04 09:55:52;;;;;;;5.32;2.55;;;;;;;28.09;41.92;101375.94;144992;591;6002;-88
2021/09/04 09:58:20;;;;;;;4.93;2.10;;;;;;;27.94;41.99;101387.13;144992;594;6002;-87
2021/09/04 10:00:48;;;;;;;4.53;2.78;;;;;;;27.83;42.00;101366.97;144991;674;6002;-87
2021/09/04 10:03:15;;;;;;;5.00;1.98;;;;;;;27.71;42.51;101356.69;144992;570;6002;-87
2021/09/04 10:05:42;;;;;;;4.30;2.53;;;;;;;27.90;42.23;101358.78;144992;570;6002;-89
2021/09/04 10:08:09;;;;;;;4.20;3.22;;;;;;;27.91;42.45;101360.53;144992;593;6002;-89
2021/09/04 10:10:38;;;;;;;3.53;2.70;;;;;;;27.98;42.14;101364.75;144992;599;6002;-86
2021/09/04 10:13:05;;;;;;;2.95;2.05;;;;;;;28.07;42.46;101371.59;144992;570;6002;-86
2021/09/04 10:15:35;;;;;;;5.43;2.60;;;;;;;27.92;43.47;101370.25;144992;611;6002;-89
2021/09/04 10:18:04;;;;;;;3.10;2.40;;;;;;;28.02;42.89;101366.41;144992;593;6002;-88
2021/09/04 10:20:32;;;;;;;5.95;2.60;;;;;;;27.90;42.90;101356.09;144992;564;6002;-88
2021/09/04 10:23:35;;;;;;;4.05;2.53;;;;;;;27.87;43.23;101355.28;144992;595;6002;-86
2021/09/04 10:26:44;;;;;;;2.83;2.62;;;;;;;27.84;43.25;101339.38;144992;607;6002;-86
2021/09/04 10:29:16;;;;;;;4.10;2.40;;;;;;;27.95;43.14;101338.19;144992;693;6004;-88
2021/09/04 10:31:58;;;;;;;4.80;2.72;;;;;;;27.91;43.03;101336.53;144992;654;6004;-87
2021/09/04 10:34:35;;;;;;;8.77;2.53;;;;;;;27.83;43.13;101331.44;144992;601;6004;-88
2021/09/04 10:37:44;;;;;;;2.97;2.67;;;;;;;27.94;42.87;101331.97;144992;571;6004;-86
2021/09/04 10:40:54;;;;;;;;;;;;;;;;;;;;;
2021/09/04 10:46:15;;;;;;;6.25;3.87;;;;;;;27.96;43.40;101335.47;144992;571;6002;-86
2021/09/04 10:51:44;;;;;;;5.12;2.97;;;;;;;28.11;42.90;101335.88;144992;560;6002;-85
2021/09/04 10:54:59;;;;;;;3.62;2.72;;;;;;;28.35;42.30;101321.69;144991;581;6002;-90
2021/09/04 10:57:47;;;;;;;4.85;2.40;;;;;;;28.33;42.44;101326.22;144992;463;6002;-88
2021/09/04 11:02:52;;;;;;;5.03;2.55;;;;;;;28.26;42.48;101331.81;144992;661;6002;-87
2021/09/04 11:05:59;;;;;;;4.60;2.83;;;;;;;28.02;43.02;101331.72;144992;590;6002;-86
2021/09/04 11:08:30;;;;;;;4.93;3.72;;;;;;;28.05;43.16;101337.81;144992;638;6004;-86
2021/09/04 11:11:18;;;;;;;3.80;2.90;;;;;;;27.81;44.03;101334.16;144992;585;6004;-88
2021/09/04 11:13:56;;;;;;;4.70;2.70;;;;;;;27.99;43.59;101340.69;144992;622;6002;-87
2021/09/04 11:16:32;;;;;;;6.22;4.93;;;;;;;27.94;43.93;101331.09;144992;647;6002;-86
2021/09/04 11:19:16;;;;;;;3.40;2.42;;;;;;;28.15;43.90;101338.37;144992;592;6002;-88
2021/09/04 11:21:52;;;;;;;4.25;2.90;;;;;;;28.21;43.72;101319.50;144992;589;6002;-87
2021/09/04 11:24:25;;;;;;;3.53;3.17;;;;;;;28.16;43.38;101334.81;144992;563;6002;-88
2021/09/04 11:27:03;;;;;;;5.40;3.08;;;;;;;28.25;43.45;101324.72;144992;616;6002;-88
2021/09/04 11:29:47;;;;;;;4.12;3.10;;;;;;;28.39;43.36;101317.97;144992;572;6002;-84
2021/09/04 11:32:19;;;;;;;3.95;3.25;;;;;;;28.39;43.45;101319.78;144992;599;6002;-88
2021/09/04 11:34:48;;;;;;;5.18;2.70;;;;;;;28.56;43.17;101312.03;144992;620;6003;-86
2021/09/04 11:37:20;;;;;;;7.30;2.70;;;;;;;28.53;43.01;101314.81;144992;581;6002;-85
2021/09/04 11:39:48;;;;;;;5.28;2.75;;;;;;;28.62;42.88;101302.97;144992;569;6002;-86
2021/09/04 11:42:16;;;;;;;5.57;3.05;;;;;;;28.53;43.03;101300.59;144992;564;6002;-85
2021/09/04 11:44:51;;;;;;;7.18;2.70;;;;;;;28.54;43.60;101302.31;144992;592;6002;-88
2021/09/04 11:47:19;;;;;;;3.42;2.85;;;;;;;28.49;43.82;101299.84;144992;628;6002;-85
2021/09/04 11:49:51;;;;;;;8.13;5.68;;;;;;;28.06;44.53;101301.31;144992;595;6002;-85
2021/09/04 11:52:31;;;;;;;5.37;2.80;;;;;;;28.14;44.66;101290.41;144992;588;6002;-89
2021/09/04 11:55:13;;;;;;;4.75;2.75;;;;;;;28.23;44.12;101292.75;144992;652;6002;-86
2021/09/04 11:57:42;;;;;;;4.35;2.95;;;;;;;28.39;43.78;101283.25;144992;596;6002;-88
2021/09/04 12:00:18;;;;;;;5.15;3.55;;;;;;;28.25;44.04;101282.03;144992;599;6002;-88
2021/09/04 12:02:58;;;;;;;3.17;2.87;;;;;;;28.24;43.73;101265.16;144992;577;6002;-88
2021/09/04 12:05:29;;;;;;;5.50;4.03;;;;;;;28.29;43.57;101273.00;144992;569;6002;-87
2021/09/04 12:08:09;;;;;;;7.82;3.60;;;;;;;28.48;43.44;101260.72;144992;569;6002;-89